Time;durP1;ratioP1;P1;durP2;ratioP2;P2;SDS_P1;SDS_P2;PMS_P1;PMS_P2;Temp;Humidity;BMP_temperature;BMP_pressure;BME280_temperature;BME280_humidity;BME280_pressure;Samples;Min_cycle;Max_cycle;Signal;HPM_P1;HPM_P2
2024/01/08 00:00:56;;;;;;;13.93;8.57;;;-5.90;1.00;;;;;;6263907;22;20181;-85
2024/01/08 00:03:23;;;;;;;9.88;6.75;;;-5.90;1.00;;;;;;6265616;22;20185;-83
2024/01/08 00:05:51;;;;;;;12.60;7.50;;;-5.90;1.00;;;;;;6266150;22;20175;-85
2024/01/08 00:08:18;;;;;;;13.63;6.60;;;-5.80;1.00;;;;;;6258392;22;20198;-86
2024/01/08 00:10:45;;;;;;;11.90;6.93;;;-5.90;1.00;;;;;;6258698;22;20232;-86
2024/01/08 00:13:12;;;;;;;11.40;6.97;;;-5.80;1.00;;;;;;6258156;23;20170;-84
2024/01/08 00:15:42;;;;;;;8.52;6.82;;;-6.00;1.00;;;;;;6265205;22;20205;-84
2024/01/08 00:18:11;;;;;;;11.82;6.72;;;-5.90;1.00;;;;;;6273941;22;20178;-82
2024/01/08 00:20:38;;;;;;;9.40;7.40;;;-6.00;1.00;;;;;;6275403;22;20173;-83
2024/01/08 00:23:06;;;;;;;13.18;7.63;;;-6.20;1.00;;;;;;6275719;22;20226;-82
2024/01/08 00:25:32;;;;;;;12.38;7.03;;;-6.00;1.00;;;;;;6275509;22;20168;-82
2024/01/08 00:28:04;;;;;;;8.15;7.05;;;-6.00;1.00;;;;;;6263557;22;20209;-85
2024/01/08 00:30:31;;;;;;;11.25;7.05;;;-6.10;1.00;;;;;;6257677;23;20163;-84
2024/01/08 00:32:59;;;;;;;9.75;6.95;;;-6.10;1.00;;;;;;6257034;23;20197;-84
2024/01/08 00:35:26;;;;;;;12.07;6.95;;;-6.00;1.00;;;;;;6270190;22;20489;-84
2024/01/08 00:37:52;;;;;;;8.02;6.25;;;-6.00;1.00;;;;;;6269523;22;20198;-84
2024/01/08 00:40:21;;;;;;;10.27;5.93;;;-6.00;1.00;;;;;;6262476;22;20561;-85
2024/01/08 00:42:48;;;;;;;9.95;6.78;;;-6.00;1.00;;;;;;6258004;23;20198;-84
2024/01/08 00:45:14;;;;;;;11.48;6.50;;;-6.00;1.00;;;;;;6256649;22;20178;-84
2024/01/08 00:47:41;;;;;;;10.15;7.03;;;-5.90;1.00;;;;;;6256724;22;20195;-83
2024/01/08 00:50:10;;;;;;;19.42;8.25;;;-5.90;1.00;;;;;;6256666;23;20644;-84
2024/01/08 00:52:37;;;;;;;12.55;5.75;;;-5.90;1.00;;;;;;6256483;23;20253;-85
2024/01/08 00:55:05;;;;;;;10.82;6.90;;;-5.90;1.00;;;;;;6257497;22;20186;-84
2024/01/08 00:57:34;;;;;;;8.10;6.80;;;-5.90;1.00;;;;;;6256499;22;20205;-84
2024/01/08 01:00:02;;;;;;;10.15;7.25;;;-6.00;1.00;;;;;;6261468;23;20202;-83
2024/01/08 01:02:29;;;;;;;10.35;7.22;;;-6.10;1.00;;;;;;6265089;23;20178;-84
2024/01/08 01:04:56;;;;;;;13.43;7.35;;;-6.10;1.00;;;;;;6257296;22;20201;-83
2024/01/08 01:07:23;;;;;;;10.90;5.80;;;-6.00;1.00;;;;;;6256318;22;20708;-84
2024/01/08 01:09:50;;;;;;;12.98;6.97;;;-6.00;1.00;;;;;;6255961;23;20179;-84
2024/01/08 01:12:16;;;;;;;7.85;6.70;;;-6.00;1.00;;;;;;6255817;22;20174;-83
2024/01/08 01:14:45;;;;;;;9.23;6.93;;;-6.00;1.00;;;;;;6256348;23;20223;-84
2024/01/08 01:17:11;;;;;;;16.30;8.55;;;-6.00;1.00;;;;;;6257088;23;20273;-83
2024/01/08 01:19:38;;;;;;;14.73;5.88;;;-6.20;1.00;;;;;;6263754;22;20201;-83
2024/01/08 01:22:05;;;;;;;9.02;5.97;;;-6.20;1.00;;;;;;6271127;23;20162;-83
2024/01/08 01:24:32;;;;;;;8.98;7.03;;;-6.10;1.00;;;;;;6266770;22;20205;-84
2024/01/08 01:26:59;;;;;;;10.10;6.95;;;-6.10;1.00;;;;;;6260966;23;20206;-84
2024/01/08 01:29:26;;;;;;;12.90;7.03;;;-6.10;1.00;;;;;;6263107;22;20216;-83
2024/01/08 01:31:54;;;;;;;10.02;7.05;;;-6.10;1.00;;;;;;6265859;22;20185;-83
2024/01/08 01:34:21;;;;;;;9.98;6.75;;;-6.00;1.00;;;;;;6260056;23;20174;-85
2024/01/08 01:36:48;;;;;;;14.32;6.28;;;-6.00;1.00;;;;;;6258094;22;20186;-84
2024/01/08 01:39:15;;;;;;;9.20;6.65;;;-6.10;1.00;;;;;;6257239;22;20182;-83
2024/01/08 01:41:42;;;;;;;12.25;7.30;;;-6.20;1.00;;;;;;6256841;23;20202;-84
2024/01/08 01:44:09;;;;;;;8.73;6.80;;;-6.20;1.00;;;;;;6258254;22;20190;-84
2024/01/08 01:46:41;;;;;;;9.95;7.60;;;-6.20;1.00;;;;;;6255649;22;20261;-84
2024/01/08 01:49:12;;;;;;;10.55;7.10;;;-6.20;1.00;;;;;;6256144;23;20177;-84
2024/01/08 01:51:41;;;;;;;12.00;6.90;;;-6.20;1.00;;;;;;6254646;23;20189;-84
2024/01/08 01:54:09;;;;;;;9.75;6.47;;;-6.20;1.00;;;;;;6270318;22;20198;-84
2024/01/08 01:56:36;;;;;;;8.43;6.30;;;-6.20;1.00;;;;;;6271172;23;20185;-83
2024/01/08 01:59:05;;;;;;;10.13;6.88;;;-6.20;1.00;;;;;;6274248;22;20201;-82
2024/01/08 02:01:33;;;;;;;13.10;7.35;;;-6.20;1.00;;;;;;6274498;23;20166;-83
2024/01/08 02:04:02;;;;;;;13.90;6.65;;;-6.20;1.00;;;;;;6266060;22;20202;-85
2024/01/08 02:06:31;;;;;;;15.63;7.30;;;-6.10;1.00;;;;;;6270998;22;20170;-83
2024/01/08 02:08:58;;;;;;;10.18;6.78;;;-6.30;1.00;;;;;;6269178;23;20665;-83
2024/01/08 02:11:25;;;;;;;7.78;5.55;;;-6.30;1.00;;;;;;6268469;23;20179;-83
2024/01/08 02:13:52;;;;;;;12.80;6.88;;;-6.20;1.00;;;;;;6268956;22;20213;-84
2024/01/08 02:16:19;;;;;;;9.35;6.82;;;-6.20;1.00;;;;;;6268143;22;20205;-84
2024/01/08 02:18:46;;;;;;;10.65;6.80;;;-6.20;1.00;;;;;;6272552;23;20205;-83
2024/01/08 02:21:13;;;;;;;8.90;7.85;;;-6.20;1.00;;;;;;6273667;22;20162;-83
2024/01/08 02:23:41;;;;;;;13.45;6.78;;;-6.30;1.00;;;;;;6274435;22;20189;-83
2024/01/08 02:26:09;;;;;;;7.85;6.28;;;-6.20;1.00;;;;;;6274353;22;20167;-83
2024/01/08 02:28:36;;;;;;;7.13;6.13;;;-6.30;1.00;;;;;;6274037;22;20193;-84
2024/01/08 02:31:04;;;;;;;12.82;6.20;;;-6.30;1.00;;;;;;6265633;22;20181;-84
2024/01/08 02:33:30;;;;;;;8.88;7.28;;;-6.30;99.90;;;;;;6255492;23;20174;-84
2024/01/08 02:35:59;;;;;;;8.30;6.65;;;-6.30;99.90;;;;;;6254779;23;20179;-84
2024/01/08 02:38:25;;;;;;;12.68;7.80;;;-6.40;99.90;;;;;;6254663;22;20264;-84
2024/01/08 02:40:57;;;;;;;12.38;7.13;;;-6.30;99.90;;;;;;6254622;23;20185;-84
2024/01/08 02:43:24;;;;;;;10.55;6.43;;;-6.20;99.90;;;;;;6256057;23;20190;-84
2024/01/08 02:45:51;;;;;;;11.38;7.13;;;-6.30;99.90;;;;;;6254148;23;20233;-84
2024/01/08 02:48:18;;;;;;;7.70;6.20;;;-6.30;99.90;;;;;;6253964;23;20194;-83
2024/01/08 02:50:45;;;;;;;15.35;7.30;;;-6.30;99.90;;;;;;6250947;22;20323;-88
2024/01/08 02:53:12;;;;;;;9.32;6.70;;;-6.40;99.90;;;;;;6253198;22;20613;-88
2024/01/08 02:55:39;;;;;;;11.88;7.38;;;-6.30;99.90;;;;;;6251845;22;20198;-88
2024/01/08 02:58:09;;;;;;;11.95;6.93;;;-6.40;99.90;;;;;;6253767;22;20201;-88
2024/01/08 03:00:36;;;;;;;9.05;6.20;;;-6.20;1.00;;;;;;6258171;23;20233;-88
2024/01/08 03:03:03;;;;;;;11.45;7.53;;;-6.40;99.90;;;;;;6255066;22;20178;-87
2024/01/08 03:05:30;;;;;;;7.88;5.32;;;-6.40;99.90;;;;;;6252496;22;20622;-88
2024/01/08 03:07:57;;;;;;;12.48;6.43;;;-6.40;99.90;;;;;;6252530;23;20186;-88
2024/01/08 03:10:24;;;;;;;7.47;5.75;;;-6.60;99.90;;;;;;6258233;23;20198;-88
2024/01/08 03:12:50;;;;;;;7.70;6.10;;;-6.50;99.90;;;;;;6275778;22;20182;-85
2024/01/08 03:15:19;;;;;;;11.57;7.00;;;-6.40;99.90;;;;;;6275690;22;20190;-84
2024/01/08 03:17:46;;;;;;;8.02;5.45;;;-6.40;1.00;;;;;;6275493;22;20162;-87
2024/01/08 03:20:13;;;;;;;9.65;7.05;;;-6.50;1.00;;;;;;6271889;22;20209;-88
2024/01/08 03:22:40;;;;;;;12.60;8.45;;;-6.60;99.90;;;;;;6267126;22;20183;-87
2024/01/08 03:25:07;;;;;;;15.95;7.60;;;-6.50;1.00;;;;;;6259489;22;20170;-88
2024/01/08 03:27:34;;;;;;;11.48;7.15;;;-6.50;1.00;;;;;;6258506;23;20564;-88
2024/01/08 03:30:01;;;;;;;9.60;6.25;;;-6.60;1.00;;;;;;6257315;22;20202;-87
2024/01/08 03:32:29;;;;;;;8.75;7.13;;;-6.50;1.00;;;;;;6262825;22;20178;-88
2024/01/08 03:34:56;;;;;;;7.72;6.47;;;-6.60;1.00;;;;;;6271894;22;20208;-87
2024/01/08 03:37:23;;;;;;;12.23;6.80;;;-6.50;1.00;;;;;;6270298;22;20185;-87
2024/01/08 03:39:50;;;;;;;11.60;6.13;;;-6.50;1.00;;;;;;6269885;22;20189;-88
2024/01/08 03:42:17;;;;;;;9.30;7.00;;;-6.50;1.00;;;;;;6266143;22;20198;-87
2024/01/08 03:44:43;;;;;;;9.75;7.10;;;-6.50;1.00;;;;;;6254623;22;20198;-88
2024/01/08 03:47:12;;;;;;;11.60;7.85;;;-6.50;1.00;;;;;;6254241;22;20179;-88
2024/01/08 03:49:40;;;;;;;9.88;6.65;;;-6.60;1.00;;;;;;6255580;22;20755;-87
2024/01/08 03:52:07;;;;;;;10.63;6.97;;;-6.60;1.00;;;;;;6254510;23;20225;-88
2024/01/08 03:54:34;;;;;;;11.35;7.18;;;-6.60;1.00;;;;;;6254937;22;20630;-88
2024/01/08 03:57:01;;;;;;;12.45;7.32;;;-6.60;1.00;;;;;;6253936;23;20179;-87
2024/01/08 03:59:27;;;;;;;12.32;6.57;;;-6.70;1.00;;;;;;6258736;23;20579;-88
2024/01/08 04:01:54;;;;;;;10.43;6.97;;;-6.70;1.00;;;;;;6254606;23;20254;-87
2024/01/08 04:04:21;;;;;;;12.65;7.72;;;-6.60;1.00;;;;;;6271643;22;20185;-87
2024/01/08 04:06:49;;;;;;;13.00;6.20;;;-6.60;1.00;;;;;;6259667;23;20174;-88
2024/01/08 04:09:17;;;;;;;11.75;6.25;;;-6.60;1.00;;;;;;6253905;23;20226;-87
2024/01/08 04:11:44;;;;;;;9.93;6.68;;;-6.70;1.00;;;;;;6255429;22;20524;-87
2024/01/08 04:14:12;;;;;;;13.98;7.43;;;-6.60;1.00;;;;;;6256195;22;20232;-87
2024/01/08 04:16:39;;;;;;;8.00;6.70;;;-6.70;1.00;;;;;;6257672;23;20179;-87
2024/01/08 04:19:08;;;;;;;12.48;7.00;;;-6.60;1.00;;;;;;6258457;22;20564;-88
2024/01/08 04:21:36;;;;;;;9.88;7.50;;;-6.60;1.00;;;;;;6255351;22;20190;-89
2024/01/08 04:24:05;;;;;;;8.35;6.30;;;-6.60;1.00;;;;;;6253545;22;20524;-89
2024/01/08 04:26:32;;;;;;;12.85;7.90;;;-6.70;1.00;;;;;;6253104;22;20560;-89
2024/01/08 04:28:59;;;;;;;12.95;7.45;;;-6.60;1.00;;;;;;6261904;22;20220;-87
2024/01/08 04:31:31;;;;;;;11.07;6.15;;;-6.60;99.90;;;;;;6259696;22;20177;-89
2024/01/08 04:33:58;;;;;;;9.70;6.35;;;-6.60;99.90;;;;;;6262083;23;20206;-89
2024/01/08 04:36:25;;;;;;;9.90;6.78;;;-6.70;99.90;;;;;;6259281;22;20292;-90
2024/01/08 04:38:52;;;;;;;9.40;6.68;;;-6.70;99.90;;;;;;6267260;22;20174;-88
2024/01/08 04:41:21;;;;;;;12.57;6.28;;;-6.60;1.00;;;;;;6275002;22;20201;-87
2024/01/08 04:43:49;;;;;;;8.45;5.80;;;-6.50;99.90;;;;;;6275229;22;20166;-86
2024/01/08 04:46:18;;;;;;;9.07;7.28;;;-6.60;99.90;;;;;;6275237;22;20182;-88
2024/01/08 04:48:54;;;;;;;8.85;6.47;;;-6.40;99.90;;;;;;6267154;22;20162;-90
2024/01/08 04:51:26;;;;;;;10.45;6.97;;;-6.60;99.90;;;;;;6255933;23;20282;-89
2024/01/08 04:54:00;;;;;;;8.95;6.15;;;-5.90;99.90;;;;;;6255399;23;20499;-89
2024/01/08 04:56:33;;;;;;;7.05;6.32;;;-6.70;99.90;;;;;;6256927;23;20268;-89
2024/01/08 04:59:01;;;;;;;10.05;5.97;;;-6.50;99.90;;;;;;6255430;23;20605;-88
2024/01/08 05:01:30;;;;;;;10.82;6.28;;;-6.60;1.00;;;;;;6255488;22;20178;-90
2024/01/08 05:03:57;;;;;;;10.73;6.57;;;-6.60;99.90;;;;;;6256258;22;20180;-90
2024/01/08 05:06:26;;;;;;;17.55;7.68;;;-6.60;99.90;;;;;;6255107;22;20183;-90
2024/01/08 05:09:02;;;;;;;15.10;7.40;;;-6.20;99.90;;;;;;6262377;22;20230;-91
2024/01/08 05:11:36;;;;;;;12.35;7.20;;;-6.60;99.90;;;;;;6256515;23;20177;-91
2024/01/08 05:14:09;;;;;;;8.70;6.82;;;-6.60;99.90;;;;;;6258786;23;20679;-90
2024/01/08 05:16:40;;;;;;;11.60;6.78;;;-6.60;99.90;;;;;;6256981;23;20167;-90
2024/01/08 05:19:08;;;;;;;8.75;6.70;;;-6.50;1.00;;;;;;6269998;22;20147;-88
2024/01/08 05:21:39;;;;;;;8.40;6.55;;;-6.60;1.00;;;;;;6273362;22;20170;-90
2024/01/08 05:24:06;;;;;;;8.70;7.38;;;-6.60;99.90;;;;;;6274001;22;20210;-89
2024/01/08 05:26:35;;;;;;;11.88;6.38;;;-6.50;1.00;;;;;;6271126;22;20174;-88
2024/01/08 05:29:02;;;;;;;10.68;7.68;;;-6.50;99.90;;;;;;6262876;22;20556;-88
2024/01/08 05:31:37;;;;;;;9.27;6.88;;;-6.60;99.90;;;;;;6262372;22;20174;-89
2024/01/08 05:34:04;;;;;;;7.88;6.30;;;-6.60;1.00;;;;;;6265209;23;20154;-88
2024/01/08 05:36:31;;;;;;;11.48;7.82;;;-6.60;1.00;;;;;;6262244;22;20181;-89
2024/01/08 05:39:01;;;;;;;10.90;7.72;;;-6.60;1.00;;;;;;6257942;22;20225;-89
2024/01/08 05:41:31;;;;;;;12.85;7.07;;;-6.70;1.00;;;;;;6261704;23;20155;-90
2024/01/08 05:44:00;;;;;;;9.68;6.65;;;-6.60;1.00;;;;;;6259893;23;20181;-89
2024/01/08 05:46:27;;;;;;;7.05;5.70;;;-6.60;1.00;;;;;;6262642;22;20178;-88
2024/01/08 05:48:54;;;;;;;9.93;6.47;;;-6.60;1.00;;;;;;6271272;22;20249;-89
2024/01/08 05:51:21;;;;;;;14.88;8.80;;;-6.60;1.00;;;;;;6260989;22;20207;-89
2024/01/08 05:53:48;;;;;;;12.77;6.38;;;-6.70;1.00;;;;;;6256856;22;20251;-89
2024/01/08 05:56:20;;;;;;;12.05;7.85;;;-6.20;1.00;;;;;;6256041;22;20190;-90
2024/01/08 05:58:50;;;;;;;11.30;7.18;;;-6.70;1.00;;;;;;6257927;23;20193;-89
2024/01/08 06:01:21;;;;;;;12.95;8.20;;;-6.60;1.00;;;;;;6257190;22;20194;-89
2024/01/08 06:03:48;;;;;;;13.52;7.78;;;-6.70;1.00;;;;;;6260235;23;20162;-89
2024/01/08 06:06:15;;;;;;;12.23;8.57;;;-6.60;1.00;;;;;;6271397;22;20214;-89
2024/01/08 06:08:45;;;;;;;10.98;7.75;;;-6.60;1.00;;;;;;6271851;22;20158;-89
2024/01/08 06:11:13;;;;;;;13.20;8.55;;;-6.60;1.00;;;;;;6261166;22;20201;-89
2024/01/08 06:13:41;;;;;;;11.77;8.45;;;-6.60;1.00;;;;;;6258714;22;20182;-89
2024/01/08 06:19:33;;;;;;;8.80;6.80;;;-6.70;1.00;;;;;;6254516;23;20220;-89
2024/01/08 06:22:08;;;;;;;12.77;7.03;;;-6.60;1.00;;;;;;6256085;23;20497;-90
2024/01/08 06:27:26;;;;;;;13.73;7.20;;;-6.60;1.00;;;;;;6256921;23;20170;-89
2024/01/08 06:29:59;;;;;;;10.32;7.03;;;-5.90;1.00;;;;;;6267351;22;20191;-87
2024/01/08 06:32:26;;;;;;;14.25;7.57;;;-6.50;1.00;;;;;;6273908;22;20178;-87
2024/01/08 06:34:54;;;;;;;10.70;7.13;;;-6.50;1.00;;;;;;6273437;22;20186;-88
2024/01/08 06:37:23;;;;;;;8.75;7.20;;;-6.50;1.00;;;;;;6272631;22;20200;-89
2024/01/08 06:39:50;;;;;;;12.60;7.72;;;-6.60;1.00;;;;;;6262065;22;20242;-90
2024/01/08 06:42:17;;;;;;;9.20;6.80;;;-6.60;1.00;;;;;;6252869;22;20254;-89
2024/01/08 06:44:44;;;;;;;11.35;7.93;;;-6.60;1.00;;;;;;6251060;22;20178;-89
2024/01/08 06:47:11;;;;;;;9.30;7.15;;;-6.60;1.00;;;;;;6251204;22;20181;-90
2024/01/08 06:49:38;;;;;;;12.85;7.65;;;-6.60;1.00;;;;;;6263685;22;20252;-89
2024/01/08 06:52:06;;;;;;;15.85;9.70;;;-6.60;1.00;;;;;;6262779;23;20190;-88
2024/01/08 06:54:33;;;;;;;9.57;7.22;;;-6.60;1.00;;;;;;6251312;23;20178;-89
2024/01/08 06:57:24;;;;;;;17.23;10.57;;;-6.60;1.00;;;;;;6252014;22;20420;-90
2024/01/08 07:00:15;;;;;;;10.07;7.43;;;-6.70;1.00;;;;;;6251082;23;20190;-90
2024/01/08 07:32:18;;;;;;;9.25;7.53;;;-6.60;1.00;;;;;;6242980;22;20161;-88
2024/01/08 08:24:45;;;;;;;13.93;8.52;;;-6.60;1.00;;;;;;6216317;23;20197;-88
2024/01/08 08:27:26;;;;;;;12.38;7.57;;;-6.60;1.00;;;;;;6239214;23;20179;-88
2024/01/08 08:30:00;;;;;;;10.98;6.10;;;-6.50;1.00;;;;;;6233856;23;20195;-89
2024/01/08 08:32:55;;;;;;;;;;;;;;;;;;;;;
2024/01/08 08:35:53;;;;;;;11.23;8.32;;;-6.40;1.00;;;;;;6230689;23;20195;-89
2024/01/08 08:38:20;;;;;;;12.52;7.75;;;-6.40;1.00;;;;;;6234211;22;20191;-83
2024/01/08 08:40:48;;;;;;;11.88;7.07;;;-6.40;1.00;;;;;;6244945;22;20182;-81
2024/01/08 08:43:15;;;;;;;14.30;8.07;;;-6.40;1.00;;;;;;6244685;22;20240;-82
2024/01/08 08:45:42;;;;;;;10.15;7.88;;;-6.30;1.00;;;;;;6244935;22;20167;-82
2024/01/08 08:48:09;;;;;;;14.68;8.57;;;-6.30;1.00;;;;;;6244249;22;20186;-83
2024/01/08 08:50:37;;;;;;;16.98;9.35;;;-6.30;1.00;;;;;;6244523;22;20157;-82
2024/01/08 08:53:04;;;;;;;12.38;8.45;;;-6.30;1.00;;;;;;6234253;22;20235;-84
2024/01/08 08:55:31;;;;;;;9.75;7.65;;;-6.30;1.00;;;;;;6226932;23;20203;-83
2024/01/08 08:58:00;;;;;;;10.70;7.85;;;-6.40;1.00;;;;;;6226017;23;20273;-84
2024/01/08 09:00:27;;;;;;;10.45;7.50;;;-6.40;1.00;;;;;;6226329;23;20234;-83
2024/01/08 09:02:54;;;;;;;11.82;6.95;;;-6.40;1.00;;;;;;6225729;23;20258;-84
2024/01/08 09:05:21;;;;;;;11.85;7.93;;;-6.40;1.00;;;;;;6224889;23;20171;-83
2024/01/08 09:07:48;;;;;;;14.23;8.95;;;-6.30;1.00;;;;;;6226850;23;20199;-84
2024/01/08 09:10:16;;;;;;;12.02;7.57;;;-6.30;1.00;;;;;;6224414;23;20210;-83
2024/01/08 09:12:43;;;;;;;7.80;6.85;;;-6.20;1.00;;;;;;6224355;23;20668;-84
2024/01/08 09:15:11;;;;;;;13.98;7.13;;;-6.30;1.00;;;;;;6224930;23;20191;-84
2024/01/08 09:17:40;;;;;;;10.65;7.93;;;-6.20;1.00;;;;;;6224537;23;20298;-84
2024/01/08 09:20:09;;;;;;;13.20;7.82;;;-6.20;1.00;;;;;;6225776;23;20250;-84
2024/01/08 09:22:36;;;;;;;9.90;7.75;;;-6.10;1.00;;;;;;6225670;23;20180;-84
2024/01/08 09:25:04;;;;;;;10.48;7.50;;;-6.00;1.00;;;;;;6225574;23;20646;-84
2024/01/08 09:27:31;;;;;;;11.25;6.82;;;-6.00;1.00;;;;;;6227098;23;20213;-81
2024/01/08 09:29:58;;;;;;;10.18;7.40;;;-6.10;1.00;;;;;;6234430;23;20186;-83
2024/01/08 09:32:27;;;;;;;11.40;7.25;;;-6.00;1.00;;;;;;6236687;23;20375;-83
2024/01/08 09:34:54;;;;;;;11.30;6.95;;;-6.00;1.00;;;;;;6226688;23;20254;-83
2024/01/08 09:37:21;;;;;;;8.60;6.80;;;-6.00;1.00;;;;;;6234280;23;20258;-83
2024/01/08 09:39:48;;;;;;;9.32;6.32;;;-6.00;1.00;;;;;;6258616;22;20178;-83
2024/01/08 09:42:15;;;;;;;13.70;7.97;;;-6.00;1.00;;;;;;6254337;23;20257;-83
2024/01/08 09:44:47;;;;;;;13.40;7.05;;;-5.90;1.00;;;;;;6256359;23;20197;-83
2024/01/08 09:47:16;;;;;;;10.65;7.78;;;-5.90;1.00;;;;;;6270567;23;20194;-82
2024/01/08 09:49:45;;;;;;;15.15;8.25;;;-5.80;1.00;;;;;;6271701;23;20231;-83
2024/01/08 09:52:14;;;;;;;12.02;7.47;;;-5.80;1.00;;;;;;6261900;22;20206;-83
2024/01/08 09:54:42;;;;;;;7.65;6.75;;;-5.70;1.00;;;;;;6254239;22;20179;-83
2024/01/08 09:57:09;;;;;;;8.82;6.80;;;-5.70;1.00;;;;;;6254575;22;20198;-83
2024/01/08 09:59:36;;;;;;;12.35;8.07;;;-5.70;1.00;;;;;;6261873;23;20184;-83
2024/01/08 10:02:04;;;;;;;11.23;7.30;;;-5.70;1.00;;;;;;6258042;23;20208;-84
2024/01/08 10:04:32;;;;;;;8.77;6.20;;;-5.70;1.00;;;;;;6253409;22;20186;-84
2024/01/08 10:07:07;;;;;;;10.50;7.63;;;-5.70;1.00;;;;;;6254747;23;20229;-84
2024/01/08 10:09:34;;;;;;;10.10;6.75;;;-5.60;1.00;;;;;;6257076;23;20177;-87
2024/01/08 10:12:01;;;;;;;12.32;6.75;;;-5.60;1.00;;;;;;6257861;22;20198;-85
2024/01/08 10:14:28;;;;;;;11.00;6.88;;;-5.70;1.00;;;;;;6258239;22;20179;-84
2024/01/08 10:16:55;;;;;;;9.32;6.50;;;-5.60;1.00;;;;;;6260672;22;20198;-85
2024/01/08 10:19:23;;;;;;;6.78;5.43;;;-5.50;1.00;;;;;;6257818;23;20202;-85
2024/01/08 10:22:08;;;;;;;9.55;6.45;;;-5.40;1.00;;;;;;6266491;22;20178;-83
2024/01/08 10:24:38;;;;;;;7.05;5.78;;;-5.50;1.00;;;;;;6267416;23;20162;-85
2024/01/08 10:27:05;;;;;;;9.15;5.75;;;-5.40;1.00;;;;;;6260177;23;20200;-85
2024/01/08 10:29:32;;;;;;;6.25;5.55;;;-5.50;1.00;;;;;;6260536;22;20186;-84
2024/01/08 10:31:59;;;;;;;9.95;5.93;;;-5.40;1.00;;;;;;6260401;22;20179;-86
2024/01/08 10:34:27;;;;;;;8.93;6.55;;;-5.40;1.00;;;;;;6261677;23;20182;-86
2024/01/08 10:36:58;;;;;;;13.00;5.20;;;-5.30;1.00;;;;;;6260185;23;20225;-84
2024/01/08 10:39:30;;;;;;;8.18;6.28;;;-5.20;1.00;;;;;;6261430;23;20162;-85
2024/01/08 10:41:57;;;;;;;9.05;5.22;;;-5.20;99.90;;;;;;6259439;23;20609;-85
2024/01/08 10:44:24;;;;;;;6.60;5.05;;;-5.20;99.90;;;;;;6259978;22;20502;-86
2024/01/08 10:46:56;;;;;;;8.38;5.60;;;-5.20;99.90;;;;;;6258375;23;20664;-84
2024/01/08 10:49:29;;;;;;;6.15;4.47;;;-5.20;99.90;;;;;;6258116;23;20163;-84
2024/01/08 10:51:58;;;;;;;5.15;4.47;;;-5.10;99.90;;;;;;6261038;23;20308;-85
2024/01/08 10:54:36;;;;;;;9.88;6.20;;;-5.00;99.90;;;;;;6258486;23;20185;-86
2024/01/08 10:57:07;;;;;;;8.85;5.15;;;-4.90;99.90;;;;;;6258246;23;20308;-86
2024/01/08 10:59:35;;;;;;;8.60;5.70;;;-4.90;99.90;;;;;;6258533;23;20221;-85
2024/01/08 11:02:03;;;;;;;7.93;5.43;;;-4.90;99.90;;;;;;6256616;23;20178;-85
2024/01/08 11:04:31;;;;;;;7.82;5.43;;;-4.90;99.90;;;;;;6257203;22;20691;-85
2024/01/08 11:07:01;;;;;;;6.88;5.22;;;-4.90;99.90;;;;;;6256426;23;20191;-85
2024/01/08 11:09:30;;;;;;;6.30;5.75;;;-4.80;99.90;;;;;;6256433;23;20163;-85
2024/01/08 11:11:57;;;;;;;8.02;5.50;;;-4.80;99.90;;;;;;6256282;23;20185;-85
2024/01/08 11:14:30;;;;;;;7.80;5.85;;;-4.70;99.90;;;;;;6256807;22;20185;-85
2024/01/08 11:16:57;;;;;;;12.45;5.40;;;-4.70;99.90;;;;;;6257381;23;20206;-84
2024/01/08 11:19:30;;;;;;;9.48;5.55;;;-4.50;99.90;;;;;;6258314;22;20178;-85
2024/01/08 11:22:10;;;;;;;8.05;6.10;;;-4.60;99.90;;;;;;6258149;23;20155;-84
2024/01/08 11:24:41;;;;;;;6.82;5.65;;;-4.60;99.90;;;;;;6257355;23;20158;-85
2024/01/08 11:27:08;;;;;;;9.23;6.35;;;-4.50;99.90;;;;;;6256975;23;20194;-84
2024/01/08 11:29:34;;;;;;;6.43;5.78;;;-4.50;99.90;;;;;;6258603;23;20235;-86
2024/01/08 11:32:39;;;;;;;9.38;6.10;;;-4.60;99.90;;;;;;6259297;22;20182;-86
2024/01/08 11:35:10;;;;;;;9.45;5.95;;;-4.60;99.90;;;;;;6260172;22;20287;-85
2024/01/08 11:37:38;;;;;;;7.43;5.70;;;-4.50;99.90;;;;;;6269007;22;20198;-85
2024/01/08 11:40:14;;;;;;;10.05;5.28;;;-4.50;99.90;;;;;;6270361;23;20197;-84
2024/01/08 11:42:42;;;;;;;9.35;6.03;;;-4.40;99.90;;;;;;6273776;22;20150;-84
2024/01/08 11:45:10;;;;;;;7.15;5.32;;;-4.40;99.90;;;;;;6274917;22;20162;-84
2024/01/08 11:47:37;;;;;;;6.55;5.70;;;-4.50;99.90;;;;;;6270768;22;20186;-84
2024/01/08 11:50:07;;;;;;;14.88;8.23;;;-4.50;99.90;;;;;;6272575;22;20166;-83
2024/01/08 11:52:39;;;;;;;11.43;5.28;;;-4.40;99.90;;;;;;6275539;22;20163;-81
2024/01/08 11:55:08;;;;;;;8.43;5.65;;;-4.30;99.90;;;;;;6276083;22;20147;-81
2024/01/08 11:57:36;;;;;;;9.35;6.40;;;-4.30;99.90;;;;;;6275899;22;20255;-81
2024/01/08 12:00:14;;;;;;;7.80;6.18;;;-4.20;99.90;;;;;;6275600;22;20174;-83
2024/01/08 12:02:41;;;;;;;9.25;6.18;;;-4.10;99.90;;;;;;6270133;22;20166;-86
2024/01/08 12:05:09;;;;;;;5.70;5.20;;;-4.20;99.90;;;;;;6258908;22;20179;-85
2024/01/08 12:07:38;;;;;;;8.38;5.88;;;-4.20;99.90;;;;;;6257378;23;20190;-86
2024/01/08 12:10:07;;;;;;;8.50;5.38;;;-4.30;99.90;;;;;;6257615;23;20178;-85
2024/01/08 12:12:36;;;;;;;6.10;4.97;;;-4.30;99.90;;;;;;6263076;22;20179;-85
2024/01/08 12:15:04;;;;;;;6.07;5.53;;;-4.30;99.90;;;;;;6267048;23;20178;-85
2024/01/08 12:17:31;;;;;;;9.43;6.05;;;-4.30;99.90;;;;;;6260657;23;20199;-84
2024/01/08 12:20:01;;;;;;;7.95;5.07;;;-4.20;99.90;;;;;;6260370;23;20186;-84
2024/01/08 12:22:28;;;;;;;6.95;5.05;;;-4.20;99.90;;;;;;6259793;22;20249;-85
2024/01/08 12:24:56;;;;;;;8.90;5.07;;;-4.10;99.90;;;;;;6258202;23;20179;-84
2024/01/08 12:27:25;;;;;;;6.68;5.35;;;-4.20;99.90;;;;;;6259991;22;20531;-85
2024/01/08 12:29:54;;;;;;;6.45;4.80;;;-4.10;99.90;;;;;;6274326;22;20163;-84
2024/01/08 12:32:24;;;;;;;6.00;4.57;;;-4.10;99.90;;;;;;6271494;23;20171;-84
2024/01/08 12:34:52;;;;;;;7.07;5.07;;;-4.10;99.90;;;;;;6262284;23;20189;-85
2024/01/08 12:37:20;;;;;;;8.70;5.82;;;-4.10;99.90;;;;;;6259860;22;20202;-84
2024/01/08 12:39:48;;;;;;;12.30;5.75;;;-4.10;99.90;;;;;;6259045;23;20246;-85
2024/01/08 12:42:15;;;;;;;8.82;5.75;;;-4.20;99.90;;;;;;6262296;23;20186;-85
2024/01/08 12:44:43;;;;;;;10.02;5.50;;;-4.20;99.90;;;;;;6263946;23;20193;-85
2024/01/08 12:47:11;;;;;;;8.68;4.55;;;-4.20;99.90;;;;;;6261671;22;20649;-85
2024/01/08 12:49:39;;;;;;;8.20;5.82;;;-4.20;99.90;;;;;;6266060;23;20194;-85
2024/01/08 12:52:06;;;;;;;8.15;5.40;;;-4.20;99.90;;;;;;6272663;23;20185;-85
2024/01/08 12:54:35;;;;;;;6.93;5.70;;;-4.10;99.90;;;;;;6273390;22;20198;-84
2024/01/08 12:57:03;;;;;;;9.57;5.38;;;-4.10;99.90;;;;;;6272691;23;20209;-84
2024/01/08 12:59:32;;;;;;;7.90;5.97;;;-4.00;99.90;;;;;;6270731;23;20208;-84
2024/01/08 13:02:00;;;;;;;6.40;5.10;;;-4.00;99.90;;;;;;6264092;22;20213;-85
2024/01/08 13:04:28;;;;;;;5.40;4.40;;;-4.10;99.90;;;;;;6263783;23;20179;-85
2024/01/08 13:06:55;;;;;;;6.97;5.25;;;-4.10;99.90;;;;;;6260584;23;20195;-85
2024/01/08 13:09:22;;;;;;;34.53;18.40;;;-4.10;99.90;;;;;;6259600;23;20241;-85
2024/01/08 13:11:49;;;;;;;6.00;5.40;;;-4.10;99.90;;;;;;6258978;23;20198;-85
2024/01/08 13:14:17;;;;;;;5.03;4.38;;;-4.10;99.90;;;;;;6260324;23;20498;-85
2024/01/08 13:16:45;;;;;;;9.00;4.75;;;-4.00;99.90;;;;;;6259117;22;20190;-84
2024/01/08 13:19:12;;;;;;;8.10;4.63;;;-4.00;99.90;;;;;;6258717;23;20205;-85
2024/01/08 13:21:42;;;;;;;8.77;6.72;;;-4.00;99.90;;;;;;6260118;23;20179;-85
2024/01/08 13:24:09;;;;;;;8.32;4.95;;;-4.10;99.90;;;;;;6265702;23;20179;-85
2024/01/08 13:26:37;;;;;;;5.40;4.82;;;-4.10;99.90;;;;;;6260474;22;20516;-84
2024/01/08 13:29:05;;;;;;;6.72;4.68;;;-4.10;99.90;;;;;;6260124;23;20205;-86
2024/01/08 13:31:32;;;;;;;7.65;4.78;;;-4.00;99.90;;;;;;6260347;22;20178;-86
2024/01/08 13:33:59;;;;;;;6.75;4.32;;;-4.10;99.90;;;;;;6269271;22;20185;-84
2024/01/08 13:36:26;;;;;;;6.88;4.82;;;-4.10;99.90;;;;;;6273628;22;20193;-82
2024/01/08 13:38:54;;;;;;;6.40;5.18;;;-4.10;99.90;;;;;;6274188;22;20186;-83
2024/01/08 13:41:21;;;;;;;8.45;5.40;;;-4.10;99.90;;;;;;6274489;22;20155;-82
2024/01/08 13:43:48;;;;;;;5.88;4.93;;;-4.10;99.90;;;;;;6242849;23;20175;-84
2024/01/08 13:46:15;;;;;;;5.35;4.55;;;-4.00;99.90;;;;;;6264679;23;20202;-85
2024/01/08 13:48:42;;;;;;;8.77;4.55;;;-4.10;99.90;;;;;;6259268;22;20248;-84
2024/01/08 13:51:09;;;;;;;5.95;4.50;;;-4.00;99.90;;;;;;6258455;23;20179;-84
2024/01/08 13:53:37;;;;;;;8.73;4.95;;;-4.00;99.90;;;;;;6258386;22;20198;-85
2024/01/08 13:56:05;;;;;;;6.70;5.43;;;-4.00;99.90;;;;;;6258422;22;20178;-84
2024/01/08 13:58:32;;;;;;;4.68;4.18;;;-4.00;99.90;;;;;;6263587;22;20194;-84
2024/01/08 14:00:59;;;;;;;5.20;4.20;;;-4.00;99.90;;;;;;6266956;22;20178;-84
2024/01/08 14:03:26;;;;;;;12.82;5.80;;;-4.00;99.90;;;;;;6258568;22;20178;-85
2024/01/08 14:05:53;;;;;;;7.43;5.20;;;-3.90;99.90;;;;;;6258786;23;20668;-85
2024/01/08 14:08:20;;;;;;;8.50;5.20;;;-3.90;99.90;;;;;;6258670;23;20687;-86
2024/01/08 14:10:47;;;;;;;9.20;5.60;;;-3.90;99.90;;;;;;6264094;22;20178;-83
2024/01/08 14:13:15;;;;;;;6.80;4.68;;;-3.90;99.90;;;;;;6265506;22;20659;-85
2024/01/08 14:15:42;;;;;;;11.68;5.22;;;-3.90;99.90;;;;;;6252622;23;20652;-85
2024/01/08 14:18:09;;;;;;;5.65;5.00;;;-4.00;99.90;;;;;;6255098;22;20789;-85
2024/01/08 14:20:36;;;;;;;9.13;4.93;;;-4.00;99.90;;;;;;6254120;23;20214;-85